Terminal Aerodrome Forecast
Issued by NWS

Home | Current Version | Previous Version | Text Only | Print | Product List | Glossary On
Versions: 1 2 3 4 5 6 7 8 9 10 11 12 13 14 15 16 17 18 19 20 21 22 23 24 25 26 27
000
FTUS41 KBUF 181700
TAFIAG
TAF
KIAG 181736Z 1818/1918 04010KT P6SM -DZ BKN007 OVC009
      TEMPO 1818/1820 BKN012
     FM182000 04007KT P6SM SCT007 BKN012
     FM182100 03006KT P6SM SCT015 BKN035
     FM182200 04005KT P6SM SCT040 BKN250
     FM190200 10006KT P6SM SCT250=

USA.gov is the U.S. government's official web portal to all federal, state and local government web resources and services.